Time;durP1;ratioP1;P1;durP2;ratioP2;P2;SDS_P1;SDS_P2;PMS_P1;PMS_P2;Temp;Humidity;BMP_temperature;BMP_pressure;BME280_temperature;BME280_humidity;BME280_pressure;Samples;Min_cycle;Max_cycle;Signal;HPM_P1;HPM_P2
2022/07/10 00:01:51;;;;;;;4.65;2.05;;;19.40;99.90;;;;;;5009263;28;20160;-54
2022/07/10 00:04:20;;;;;;;5.80;1.60;;;19.40;99.90;;;;;;5007943;28;20513;-53
2022/07/10 00:06:47;;;;;;;3.30;1.55;;;19.40;99.90;;;;;;5007683;28;20124;-55
2022/07/10 00:09:15;;;;;;;4.65;1.48;;;19.30;99.90;;;;;;5008038;28;20104;-55
2022/07/10 00:11:42;;;;;;;6.15;2.00;;;19.20;99.90;;;;;;5006093;28;20069;-55
2022/07/10 00:14:09;;;;;;;4.95;1.70;;;19.20;99.90;;;;;;5008949;28;20500;-55
2022/07/10 00:16:36;;;;;;;5.20;1.60;;;19.20;99.90;;;;;;5008853;28;20050;-56
2022/07/10 00:19:03;;;;;;;9.88;2.10;;;19.20;99.90;;;;;;5009034;28;20052;-56
2022/07/10 00:21:30;;;;;;;7.22;2.30;;;19.10;99.90;;;;;;5008600;28;20508;-54
2022/07/10 00:23:56;;;;;;;6.30;1.88;;;19.10;99.90;;;;;;5008974;28;20085;-53
2022/07/10 00:26:23;;;;;;;3.25;1.50;;;19.10;99.90;;;;;;5009282;28;20042;-55
2022/07/10 00:28:50;;;;;;;3.25;1.60;;;19.20;99.90;;;;;;5008775;28;20073;-54
2022/07/10 00:31:17;;;;;;;3.10;1.40;;;19.10;99.90;;;;;;5009128;28;20082;-55
2022/07/10 00:33:44;;;;;;;5.00;1.67;;;19.10;99.90;;;;;;5008918;28;20079;-55
2022/07/10 00:36:11;;;;;;;5.90;2.00;;;19.10;99.90;;;;;;5008613;28;20077;-53
2022/07/10 00:38:37;;;;;;;4.07;1.90;;;19.00;99.90;;;;;;5008855;28;20084;-57
2022/07/10 00:41:05;;;;;;;4.43;1.80;;;19.00;99.90;;;;;;5008939;28;20057;-55
2022/07/10 00:43:51;;;;;;;8.85;1.92;;;18.90;99.90;;;;;;5008856;28;20504;-57
2022/07/10 00:46:20;;;;;;;3.95;1.67;;;18.80;99.90;;;;;;5008619;28;20071;-57
2022/07/10 00:48:48;;;;;;;5.10;1.73;;;18.70;99.90;;;;;;5008844;28;20042;-55
2022/07/10 00:51:16;;;;;;;3.30;1.20;;;18.70;99.90;;;;;;5009021;28;20101;-57
2022/07/10 00:53:47;;;;;;;3.45;1.55;;;18.70;99.90;;;;;;5007117;28;20441;-56
2022/07/10 00:56:16;;;;;;;4.72;1.33;;;18.70;99.90;;;;;;5007560;28;20050;-55
2022/07/10 00:58:46;;;;;;;4.40;1.25;;;18.60;99.90;;;;;;5008765;28;20045;-56
2022/07/10 01:01:14;;;;;;;3.53;1.40;;;18.70;99.90;;;;;;5007151;28;20045;-51
2022/07/10 01:03:41;;;;;;;4.70;1.40;;;18.60;99.90;;;;;;5007736;28;20050;-51
2022/07/10 01:06:08;;;;;;;4.88;1.55;;;18.70;99.90;;;;;;5008691;28;20111;-54
2022/07/10 01:08:35;;;;;;;3.92;1.77;;;18.60;99.90;;;;;;5008201;28;20084;-56
2022/07/10 01:11:02;;;;;;;3.60;1.80;;;18.60;99.90;;;;;;5006169;28;20380;-54
2022/07/10 01:13:29;;;;;;;6.47;1.73;;;18.50;99.90;;;;;;5008003;28;20100;-53
2022/07/10 01:15:56;;;;;;;2.85;1.52;;;18.50;99.90;;;;;;5006900;28;20073;-55
2022/07/10 01:18:25;;;;;;;5.47;1.80;;;18.50;99.90;;;;;;4666405;28;10000060;-55
2022/07/10 01:20:54;;;;;;;8.07;2.10;;;18.50;99.90;;;;;;5004799;28;20560;-55
2022/07/10 01:23:21;;;;;;;5.65;1.52;;;18.40;99.90;;;;;;4997971;28;20088;-54
2022/07/10 01:25:49;;;;;;;4.50;1.80;;;18.40;99.90;;;;;;5007455;28;20429;-56
2022/07/10 01:28:16;;;;;;;5.90;1.40;;;18.40;99.90;;;;;;5007984;28;20536;-54
2022/07/10 01:30:43;;;;;;;2.17;1.48;;;18.40;99.90;;;;;;5008383;28;20046;-54
2022/07/10 01:33:10;;;;;;;2.60;1.20;;;18.40;99.90;;;;;;5006294;28;20046;-53
2022/07/10 01:35:37;;;;;;;6.63;1.60;;;18.40;99.90;;;;;;5008149;28;20042;-56
2022/07/10 01:38:04;;;;;;;5.07;1.55;;;18.40;99.90;;;;;;5006971;28;20088;-53
2022/07/10 01:40:31;;;;;;;4.38;1.40;;;18.40;99.90;;;;;;5008318;28;20116;-50
2022/07/10 01:42:58;;;;;;;4.55;1.80;;;18.40;99.90;;;;;;5007920;28;20077;-52
2022/07/10 01:45:25;;;;;;;5.22;1.80;;;18.40;99.90;;;;;;5007834;28;20077;-56
2022/07/10 01:47:52;;;;;;;5.13;2.42;;;18.30;99.90;;;;;;5008075;28;20048;-56
2022/07/10 01:50:19;;;;;;;3.53;1.48;;;18.20;99.90;;;;;;5007787;28;20053;-54
2022/07/10 01:52:46;;;;;;;8.13;1.45;;;18.20;99.90;;;;;;5007768;28;20497;-56
2022/07/10 01:55:13;;;;;;;7.35;1.70;;;18.20;99.90;;;;;;5006579;28;20131;-53
2022/07/10 01:57:40;;;;;;;5.13;1.50;;;18.20;99.90;;;;;;5006741;28;20073;-56
2022/07/10 02:00:09;;;;;;;8.27;2.10;;;18.20;99.90;;;;;;5006738;28;20050;-55
2022/07/10 02:02:36;;;;;;;3.90;1.88;;;18.20;99.90;;;;;;5006363;28;21112;-56
2022/07/10 02:05:03;;;;;;;4.93;1.10;;;18.10;99.90;;;;;;5006974;28;20202;-55
2022/07/10 02:07:30;;;;;;;4.82;1.60;;;18.00;99.90;;;;;;5007038;28;20133;-55
2022/07/10 02:09:57;;;;;;;3.88;2.10;;;18.00;99.90;;;;;;5007725;28;20096;-55
2022/07/10 02:12:24;;;;;;;5.57;1.98;;;17.90;99.90;;;;;;5007575;28;20050;-55
2022/07/10 02:14:51;;;;;;;2.08;1.25;;;17.90;99.90;;;;;;5007134;28;20096;-54
2022/07/10 02:17:17;;;;;;;3.17;1.85;;;17.80;99.90;;;;;;5017208;28;20073;-53
2022/07/10 02:19:44;;;;;;;5.32;1.83;;;17.80;99.90;;;;;;5020403;28;20089;-59
2022/07/10 02:22:11;;;;;;;8.85;2.13;;;17.80;99.90;;;;;;5007768;28;20116;-60
2022/07/10 02:24:38;;;;;;;7.82;2.35;;;17.80;99.90;;;;;;5007539;28;20053;-55
2022/07/10 02:27:05;;;;;;;2.75;1.67;;;17.70;99.90;;;;;;5005865;28;20125;-53
2022/07/10 02:29:32;;;;;;;4.35;1.63;;;17.60;99.90;;;;;;5007180;28;20109;-56
2022/07/10 02:31:58;;;;;;;2.22;1.52;;;17.50;99.90;;;;;;5007309;28;20045;-56
2022/07/10 02:34:25;;;;;;;4.78;1.52;;;17.60;99.90;;;;;;5007965;28;20409;-56
2022/07/10 02:36:52;;;;;;;5.15;1.63;;;17.60;99.90;;;;;;5009564;28;20042;-54
2022/07/10 02:39:19;;;;;;;6.88;1.85;;;17.50;99.90;;;;;;5011122;28;20521;-53
2022/07/10 02:41:46;;;;;;;6.00;1.60;;;17.50;99.90;;;;;;5010938;28;20050;-56
2022/07/10 02:44:13;;;;;;;4.10;1.30;;;17.50;99.90;;;;;;5010940;28;20045;-56
2022/07/10 02:46:39;;;;;;;4.45;1.40;;;17.40;99.90;;;;;;5011232;28;20049;-54
2022/07/10 02:49:06;;;;;;;6.22;2.28;;;17.30;99.90;;;;;;5010939;28;20050;-55
2022/07/10 02:51:33;;;;;;;4.70;2.45;;;17.30;99.90;;;;;;5010885;28;20049;-55
2022/07/10 02:54:00;;;;;;;3.97;1.55;;;17.20;99.90;;;;;;5010938;28;20107;-55
2022/07/10 02:56:27;;;;;;;3.85;1.85;;;17.10;99.90;;;;;;5011477;28;20196;-55
2022/07/10 02:58:53;;;;;;;2.83;1.60;;;17.10;99.90;;;;;;5010668;28;20049;-56
2022/07/10 03:01:20;;;;;;;4.07;1.60;;;17.10;99.90;;;;;;5010485;28;20057;-55
2022/07/10 03:03:47;;;;;;;5.72;1.95;;;17.10;99.90;;;;;;5010772;28;20137;-56
2022/07/10 03:06:14;;;;;;;3.58;1.50;;;17.10;99.90;;;;;;5010632;28;20481;-55
2022/07/10 03:08:41;;;;;;;3.95;1.48;;;17.10;99.90;;;;;;5010651;28;20042;-52
2022/07/10 03:11:09;;;;;;;3.17;1.77;;;17.10;99.90;;;;;;5010419;28;20113;-58
2022/07/10 03:13:35;;;;;;;12.57;2.88;;;17.10;99.90;;;;;;5010088;28;20128;-57
2022/07/10 03:16:02;;;;;;;3.22;1.60;;;17.00;99.90;;;;;;5008221;28;20053;-54
2022/07/10 03:18:29;;;;;;;5.65;1.90;;;17.00;99.90;;;;;;5020805;28;20085;-53
2022/07/10 03:20:56;;;;;;;7.72;2.50;;;17.00;99.90;;;;;;4999988;28;20038;-53
2022/07/10 03:23:23;;;;;;;4.70;2.00;;;17.00;99.90;;;;;;5009628;28;20073;-53
2022/07/10 03:25:50;;;;;;;3.85;1.55;;;17.00;99.90;;;;;;5010098;28;20054;-52
2022/07/10 03:28:17;;;;;;;3.63;1.67;;;17.00;99.90;;;;;;5010080;28;20085;-56
2022/07/10 03:30:43;;;;;;;2.55;1.60;;;16.90;99.90;;;;;;5010532;28;20313;-55
2022/07/10 03:33:10;;;;;;;7.28;1.80;;;16.90;99.90;;;;;;5010316;28;20104;-55
2022/07/10 03:35:37;;;;;;;3.63;1.45;;;16.90;99.90;;;;;;5010314;28;20104;-55
2022/07/10 03:38:04;;;;;;;3.08;1.40;;;16.80;99.90;;;;;;5010409;28;20074;-54
2022/07/10 03:40:31;;;;;;;4.15;1.60;;;16.80;99.90;;;;;;5009809;28;20316;-55
2022/07/10 03:42:57;;;;;;;4.55;1.60;;;16.80;99.90;;;;;;5000726;28;20146;-55
2022/07/10 03:45:24;;;;;;;2.67;1.92;;;16.80;99.90;;;;;;5010100;28;20050;-54
2022/07/10 03:47:51;;;;;;;5.63;1.38;;;16.90;99.90;;;;;;5008778;28;20340;-56
2022/07/10 03:50:18;;;;;;;2.70;1.45;;;16.90;99.90;;;;;;5009982;28;20098;-54
2022/07/10 03:52:46;;;;;;;4.03;1.58;;;16.80;99.90;;;;;;5009953;28;20077;-55
2022/07/10 03:55:13;;;;;;;4.13;1.48;;;16.80;99.90;;;;;;5009566;28;20504;-56
2022/07/10 03:57:56;;;;;;;3.28;1.80;;;16.80;99.90;;;;;;5009867;28;20042;-55
2022/07/10 04:00:29;;;;;;;3.33;1.40;;;16.70;99.90;;;;;;4999824;28;20042;-54
2022/07/10 04:03:00;;;;;;;3.45;1.58;;;16.60;99.90;;;;;;5006494;28;20605;-55
2022/07/10 04:05:27;;;;;;;5.90;1.90;;;16.50;99.90;;;;;;5009463;28;20091;-55
2022/07/10 04:07:54;;;;;;;4.70;1.33;;;16.50;99.90;;;;;;5008642;28;20505;-55
2022/07/10 04:10:21;;;;;;;6.57;1.80;;;16.40;99.90;;;;;;5009292;28;20046;-56
2022/07/10 04:12:48;;;;;;;5.13;1.42;;;16.40;99.90;;;;;;5009356;28;20120;-55
2022/07/10 04:15:15;;;;;;;3.88;1.40;;;16.40;99.90;;;;;;5009004;28;20073;-54
2022/07/10 04:17:42;;;;;;;5.40;1.52;;;16.40;99.90;;;;;;5009367;28;20104;-55
2022/07/10 04:20:09;;;;;;;3.85;1.50;;;16.40;99.90;;;;;;5007711;28;20049;-60
2022/07/10 04:22:36;;;;;;;4.93;1.42;;;16.40;99.90;;;;;;5009144;28;20042;-55
2022/07/10 04:25:04;;;;;;;6.82;2.13;;;16.40;99.90;;;;;;5009265;28;20089;-55
2022/07/10 04:27:31;;;;;;;6.75;1.70;;;16.40;99.90;;;;;;5008950;28;20137;-53
2022/07/10 04:29:57;;;;;;;2.78;1.50;;;16.50;99.90;;;;;;5007915;28;20046;-55
2022/07/10 04:32:24;;;;;;;5.50;1.73;;;16.40;99.90;;;;;;5008737;28;20046;-52
2022/07/10 04:34:51;;;;;;;2.75;1.95;;;16.40;99.90;;;;;;5008926;28;20501;-53
2022/07/10 04:37:18;;;;;;;5.10;1.60;;;16.40;99.90;;;;;;5009224;28;20236;-52
2022/07/10 04:39:45;;;;;;;3.17;1.30;;;16.30;99.90;;;;;;5008717;28;20088;-55
2022/07/10 04:42:12;;;;;;;4.40;1.35;;;16.30;99.90;;;;;;5008330;28;20077;-53
2022/07/10 04:44:39;;;;;;;6.80;1.67;;;16.40;99.90;;;;;;5008616;28;20045;-58
2022/07/10 04:47:06;;;;;;;4.72;1.40;;;16.50;99.90;;;;;;5007634;28;20073;-54
2022/07/10 04:49:33;;;;;;;2.75;1.30;;;16.50;99.90;;;;;;5008925;28;20341;-54
2022/07/10 04:52:00;;;;;;;7.38;1.60;;;16.50;99.90;;;;;;5008879;28;20088;-54
2022/07/10 04:54:26;;;;;;;2.85;1.42;;;16.60;99.90;;;;;;5007600;28;20045;-54
2022/07/10 04:56:53;;;;;;;4.85;1.90;;;16.60;99.90;;;;;;5008906;28;20106;-54
2022/07/10 04:59:20;;;;;;;6.85;2.35;;;16.60;99.90;;;;;;5009055;28;20050;-54
2022/07/10 05:01:47;;;;;;;8.88;2.55;;;16.60;99.90;;;;;;5008622;28;20046;-50
2022/07/10 05:04:14;;;;;;;4.60;1.65;;;16.50;99.90;;;;;;5008626;28;20099;-54
2022/07/10 05:06:41;;;;;;;5.80;1.83;;;16.60;99.90;;;;;;5008751;28;20160;-53
2022/07/10 05:09:07;;;;;;;5.13;1.73;;;16.70;99.90;;;;;;5008858;28;20058;-50
2022/07/10 05:11:34;;;;;;;6.25;1.80;;;16.70;99.90;;;;;;5008825;28;20085;-57
2022/07/10 05:14:01;;;;;;;16.20;2.10;;;16.70;99.90;;;;;;5008413;28;20073;-53
2022/07/10 05:16:28;;;;;;;4.40;1.83;;;16.60;99.90;;;;;;5009477;28;20096;-56
2022/07/10 05:18:54;;;;;;;7.47;2.05;;;16.70;99.90;;;;;;5010560;28;20046;-51
2022/07/10 05:21:21;;;;;;;3.90;1.00;;;16.80;99.90;;;;;;5007941;28;20112;-54
2022/07/10 05:23:48;;;;;;;2.35;1.23;;;16.80;99.90;;;;;;4999327;28;20454;-56
2022/07/10 05:26:15;;;;;;;4.05;1.02;;;16.80;99.90;;;;;;5006941;28;20486;-54
2022/07/10 05:28:42;;;;;;;3.15;1.10;;;16.80;99.90;;;;;;5008466;28;20045;-53
2022/07/10 05:31:09;;;;;;;5.43;1.30;;;16.80;99.90;;;;;;5008097;28;20085;-55
2022/07/10 05:33:38;;;;;;;5.28;1.10;;;16.90;99.90;;;;;;5007243;28;20073;-55
2022/07/10 05:36:06;;;;;;;1.65;1.05;;;16.80;99.90;;;;;;5008471;28;20076;-52
2022/07/10 05:38:32;;;;;;;1.63;0.85;;;16.90;99.90;;;;;;5008114;28;20100;-55
2022/07/10 05:40:59;;;;;;;3.50;1.25;;;16.90;99.90;;;;;;5007800;28;20096;-54
2022/07/10 05:43:26;;;;;;;4.13;1.10;;;17.00;99.90;;;;;;5007884;28;20038;-55
2022/07/10 05:45:53;;;;;;;4.82;1.48;;;17.00;99.90;;;;;;5023408;28;20089;-54
2022/07/10 05:48:24;;;;;;;3.13;1.00;;;17.00;99.90;;;;;;5007895;28;20041;-55
2022/07/10 05:50:52;;;;;;;12.20;1.50;;;17.00;99.90;;;;;;5008537;28;20305;-54
2022/07/10 05:53:19;;;;;;;2.95;0.95;;;17.00;99.90;;;;;;5007860;28;20254;-53
2022/07/10 05:55:49;;;;;;;5.07;1.30;;;17.00;99.90;;;;;;5007446;28;20073;-53
2022/07/10 05:58:16;;;;;;;0.80;0.65;;;17.10;99.90;;;;;;5007620;28;20103;-54
2022/07/10 06:00:43;;;;;;;1.73;0.90;;;17.20;99.90;;;;;;5008114;28;20118;-55
2022/07/10 06:03:10;;;;;;;2.10;1.02;;;17.30;99.90;;;;;;5007672;28;20613;-55
2022/07/10 06:05:37;;;;;;;2.78;0.85;;;17.40;99.90;;;;;;5007405;28;20081;-53
2022/07/10 06:08:04;;;;;;;3.75;1.35;;;17.50;99.90;;;;;;5007464;28;20425;-54
2022/07/10 06:10:31;;;;;;;2.88;0.85;;;17.50;99.90;;;;;;5008893;28;20096;-51
2022/07/10 06:12:58;;;;;;;2.40;0.85;;;17.60;99.90;;;;;;5002404;28;20501;-50
2022/07/10 06:15:25;;;;;;;1.67;1.00;;;17.70;99.90;;;;;;5011340;28;20057;-54
2022/07/10 06:17:51;;;;;;;4.20;1.17;;;17.60;99.90;;;;;;5010948;28;20046;-53
2022/07/10 06:20:18;;;;;;;3.25;1.27;;;17.70;99.80;;;;;;5010624;28;20085;-54
2022/07/10 06:22:45;;;;;;;3.58;0.80;;;17.80;99.80;;;;;;5011005;28;20045;-53
2022/07/10 06:25:12;;;;;;;2.08;0.75;;;17.90;99.60;;;;;;5010887;28;20081;-55
2022/07/10 06:27:39;;;;;;;1.10;0.77;;;18.00;99.50;;;;;;5011227;28;20085;-54
2022/07/10 06:30:06;;;;;;;2.13;0.80;;;18.10;99.20;;;;;;5011033;28;20555;-54
2022/07/10 06:32:33;;;;;;;2.10;0.90;;;18.10;98.90;;;;;;5011555;28;20054;-55
2022/07/10 06:35:01;;;;;;;1.25;0.85;;;18.20;98.90;;;;;;5007170;28;20104;-55
2022/07/10 06:37:28;;;;;;;3.95;1.05;;;18.30;98.80;;;;;;5011373;28;20049;-53
2022/07/10 06:39:55;;;;;;;1.70;0.90;;;18.30;98.60;;;;;;5010639;28;20082;-54
2022/07/10 06:42:22;;;;;;;3.00;1.35;;;18.40;98.60;;;;;;5011118;28;20053;-54
2022/07/10 06:44:52;;;;;;;2.70;0.80;;;18.40;98.20;;;;;;5010925;28;20057;-55
2022/07/10 06:50:05;;;;;;;2.20;0.80;;;18.50;98.10;;;;;;5010714;28;20092;-53
2022/07/10 06:52:33;;;;;;;3.25;0.98;;;18.70;98.00;;;;;;5010766;28;20088;-56
2022/07/10 06:55:00;;;;;;;2.72;0.95;;;18.70;97.40;;;;;;4993638;28;20465;-54
2022/07/10 06:57:27;;;;;;;1.48;0.75;;;18.80;97.50;;;;;;5010662;28;20481;-56
2022/07/10 06:59:55;;;;;;;1.52;0.73;;;18.90;96.60;;;;;;5010722;28;20501;-58
2022/07/10 07:02:22;;;;;;;1.70;0.60;;;19.00;96.60;;;;;;5009904;28;20112;-56
2022/07/10 07:04:49;;;;;;;2.72;1.05;;;19.10;96.70;;;;;;5010214;28;20046;-52
2022/07/10 07:07:16;;;;;;;1.52;1.05;;;19.10;96.50;;;;;;5010599;28;20108;-55
2022/07/10 07:09:51;;;;;;;3.42;1.02;;;19.20;96.50;;;;;;5001393;28;20038;-54
2022/07/10 07:12:18;;;;;;;1.60;0.77;;;19.20;96.20;;;;;;5009605;28;20054;-54
2022/07/10 07:14:45;;;;;;;4.68;1.00;;;19.20;96.20;;;;;;5009567;28;20104;-56
2022/07/10 07:17:14;;;;;;;2.97;0.82;;;19.20;96.20;;;;;;5010230;28;20045;-56
2022/07/10 07:25:12;;;;;;;4.88;1.10;;;19.40;96.10;;;;;;5010097;28;20552;-55
2022/07/10 07:27:39;;;;;;;1.65;0.95;;;19.40;96.10;;;;;;4661958;28;10000017;-51
2022/07/10 07:30:07;;;;;;;3.28;1.20;;;19.50;96.10;;;;;;5006219;28;20041;-55
2022/07/10 07:32:34;;;;;;;1.85;0.80;;;19.60;96.40;;;;;;5006945;28;20566;-54
2022/07/10 07:35:01;;;;;;;1.33;1.00;;;19.60;96.10;;;;;;5007158;28;20050;-53
2022/07/10 07:37:38;;;;;;;3.63;1.60;;;19.60;96.00;;;;;;5007327;28;20104;-54
2022/07/10 07:40:06;;;;;;;5.13;1.10;;;19.60;96.20;;;;;;5006961;28;20042;-52
2022/07/10 07:42:33;;;;;;;1.48;1.02;;;19.70;96.10;;;;;;5006291;28;20100;-51
2022/07/10 07:45:00;;;;;;;2.95;1.08;;;19.70;96.00;;;;;;5007130;28;20479;-54
2022/07/10 07:47:27;;;;;;;2.90;1.05;;;19.80;95.80;;;;;;5003470;28;20509;-56
2022/07/10 07:49:54;;;;;;;4.78;1.13;;;19.70;95.90;;;;;;4996630;28;20426;-55
2022/07/10 07:52:22;;;;;;;2.45;1.13;;;19.80;96.00;;;;;;5006099;28;20045;-55
2022/07/10 07:54:50;;;;;;;4.15;1.25;;;19.90;96.00;;;;;;5022147;28;20050;-57
2022/07/10 07:57:17;;;;;;;2.83;0.80;;;19.90;95.90;;;;;;5006859;28;20056;-53
2022/07/10 07:59:45;;;;;;;3.53;0.90;;;19.90;95.60;;;;;;5005992;28;20337;-54
2022/07/10 08:02:12;;;;;;;3.22;1.13;;;19.90;95.50;;;;;;5006456;28;20108;-54
2022/07/10 08:04:39;;;;;;;4.18;1.15;;;19.90;95.70;;;;;;5006669;28;20053;-56
2022/07/10 08:07:06;;;;;;;1.98;1.02;;;19.90;95.70;;;;;;5006599;28;20092;-52
2022/07/10 08:09:33;;;;;;;2.20;1.23;;;19.90;95.70;;;;;;5006488;28;20050;-54
2022/07/10 08:12:00;;;;;;;1.92;1.13;;;20.00;95.50;;;;;;5021167;28;20108;-54
2022/07/10 08:14:27;;;;;;;4.32;1.20;;;20.10;95.80;;;;;;5006304;28;20065;-56
2022/07/10 08:16:54;;;;;;;4.50;1.30;;;20.20;95.40;;;;;;5009080;28;20346;-53
2022/07/10 08:19:21;;;;;;;11.60;1.42;;;20.20;95.20;;;;;;5012376;28;20104;-55
2022/07/10 08:21:48;;;;;;;3.10;1.05;;;20.20;95.30;;;;;;5005788;28;20108;-53
2022/07/10 08:24:15;;;;;;;1.90;0.80;;;20.20;95.30;;;;;;5006367;28;20112;-55
2022/07/10 08:26:41;;;;;;;1.30;0.77;;;20.30;95.10;;;;;;5004403;28;20053;-55
2022/07/10 08:29:08;;;;;;;2.58;0.88;;;20.40;95.20;;;;;;5006071;28;20081;-55
2022/07/10 08:31:36;;;;;;;2.03;1.17;;;20.60;94.90;;;;;;5006291;28;20057;-54
2022/07/10 08:34:02;;;;;;;2.92;1.02;;;20.60;94.90;;;;;;5005601;28;20587;-56
2022/07/10 08:36:29;;;;;;;5.50;1.25;;;20.70;94.80;;;;;;5006219;28;20394;-55
2022/07/10 08:39:07;;;;;;;3.35;0.88;;;20.80;94.30;;;;;;5005947;28;20054;-58
2022/07/10 08:41:34;;;;;;;2.53;0.90;;;20.80;94.10;;;;;;5006287;28;20283;-54
2022/07/10 08:44:00;;;;;;;2.30;1.00;;;20.80;93.90;;;;;;5005576;28;20088;-56
2022/07/10 08:46:28;;;;;;;1.45;1.00;;;20.80;94.10;;;;;;5005916;28;20045;-53
2022/07/10 08:48:55;;;;;;;2.47;1.10;;;20.90;94.10;;;;;;5005702;28;20128;-54
2022/07/10 08:51:44;;;;;;;8.82;6.72;;;21.00;93.60;;;;;;5005386;28;20073;-51
2022/07/10 08:54:12;;;;;;;3.03;1.20;;;21.00;93.30;;;;;;5008044;28;20046;-55
2022/07/10 08:56:47;;;;;;;3.30;0.95;;;21.10;93.70;;;;;;5004603;28;20096;-53
2022/07/10 08:59:14;;;;;;;2.22;0.80;;;21.20;93.10;;;;;;5006731;28;20050;-53
2022/07/10 09:01:41;;;;;;;4.07;1.50;;;21.30;93.10;;;;;;5008179;28;20485;-55
2022/07/10 09:04:20;;;;;;;2.63;1.30;;;21.30;93.20;;;;;;5008035;28;20500;-54
2022/07/10 09:06:47;;;;;;;2.58;0.98;;;21.30;92.80;;;;;;5008026;28;20050;-54
2022/07/10 09:09:14;;;;;;;2.03;1.10;;;21.30;92.90;;;;;;5008453;28;20042;-54
2022/07/10 09:11:42;;;;;;;2.00;1.10;;;21.40;92.80;;;;;;5008120;28;20366;-53
2022/07/10 09:14:13;;;;;;;3.47;1.23;;;21.50;92.60;;;;;;5007911;28;20085;-53
2022/07/10 09:16:59;;;;;;;3.80;1.10;;;21.50;92.50;;;;;;5007753;28;20046;-55
2022/07/10 09:19:27;;;;;;;6.30;0.80;;;21.50;92.60;;;;;;5008134;28;20089;-54
2022/07/10 09:22:06;;;;;;;6.30;1.10;;;21.60;92.10;;;;;;5006809;28;20046;-54
2022/07/10 09:24:40;;;;;;;3.10;1.08;;;21.80;92.10;;;;;;5000462;28;20058;-54
2022/07/10 09:27:07;;;;;;;4.18;1.20;;;21.90;91.90;;;;;;5006920;28;20053;-54
2022/07/10 09:29:45;;;;;;;3.55;1.02;;;22.00;91.80;;;;;;5006186;28;20044;-54
2022/07/10 09:32:12;;;;;;;3.63;1.02;;;22.10;91.00;;;;;;5006251;28;20513;-53
2022/07/10 09:34:46;;;;;;;4.78;1.73;;;22.20;91.50;;;;;;5009860;28;20046;-53
2022/07/10 09:37:29;;;;;;;3.03;1.17;;;22.20;91.10;;;;;;5010163;28;20770;-51
2022/07/10 09:40:05;;;;;;;2.38;1.38;;;22.20;90.90;;;;;;4999224;28;20081;-50
2022/07/10 09:42:36;;;;;;;1.95;1.20;;;22.40;90.20;;;;;;5007000;28;20381;-52
2022/07/10 09:45:16;;;;;;;7.20;1.40;;;22.50;90.50;;;;;;4643236;28;9999767;-54
2022/07/10 09:47:54;;;;;;;3.53;1.42;;;22.60;89.50;;;;;;5001136;28;20058;-55
2022/07/10 09:50:22;;;;;;;6.38;1.42;;;22.60;90.50;;;;;;5006034;28;20053;-54
2022/07/10 09:52:54;;;;;;;4.93;1.58;;;22.80;90.30;;;;;;5002870;28;20112;-53
2022/07/10 09:55:22;;;;;;;4.13;1.58;;;22.80;90.20;;;;;;5019879;28;20493;-51
2022/07/10 09:57:59;;;;;;;7.03;1.48;;;23.10;89.90;;;;;;5009376;28;20141;-54
2022/07/10 10:00:33;;;;;;;3.22;1.50;;;23.10;87.80;;;;;;5004553;28;20058;-54
2022/07/10 10:03:04;;;;;;;1.50;0.82;;;23.20;88.70;;;;;;5003334;28;20057;-54
2022/07/10 10:05:44;;;;;;;6.28;1.30;;;23.30;88.20;;;;;;5001561;28;20104;-54
2022/07/10 10:09:05;;;;;;;3.85;1.73;;;23.40;88.50;;;;;;5001839;28;20067;-51
2022/07/10 10:11:35;;;;;;;2.97;1.50;;;23.50;85.60;;;;;;4968697;28;20134;-54
2022/07/10 10:14:02;;;;;;;3.85;1.83;;;23.70;86.80;;;;;;5001711;28;20598;-54
2022/07/10 10:16:32;;;;;;;2.38;1.10;;;23.90;85.70;;;;;;5004240;28;20057;-55
2022/07/10 10:21:48;;;;;;;3.75;1.30;;;24.20;84.40;;;;;;5004975;28;20100;-53
2022/07/10 10:24:15;;;;;;;4.70;1.48;;;24.60;80.80;;;;;;5004990;28;20509;-56
2022/07/10 10:26:42;;;;;;;3.80;1.38;;;24.70;80.10;;;;;;5003651;28;20081;-54
2022/07/10 10:29:09;;;;;;;4.95;1.40;;;24.70;81.20;;;;;;5004846;28;20567;-53
2022/07/10 10:31:36;;;;;;;3.47;1.10;;;25.00;81.30;;;;;;5012087;28;20947;-53
2022/07/10 10:34:03;;;;;;;2.47;1.00;;;25.30;78.60;;;;;;5004987;28;20096;-51
2022/07/10 10:36:44;;;;;;;4.85;1.17;;;25.40;76.40;;;;;;5003808;28;20045;-52
2022/07/10 10:39:18;;;;;;;3.13;1.20;;;25.30;75.30;;;;;;5004246;28;20049;-53
2022/07/10 10:41:52;;;;;;;5.05;1.85;;;25.50;73.10;;;;;;5004616;28;20056;-50
2022/07/10 10:44:20;;;;;;;3.13;1.13;;;25.80;76.50;;;;;;4998876;28;20112;-56
2022/07/10 10:46:50;;;;;;;2.83;1.40;;;25.70;75.00;;;;;;5004334;28;20045;-54
2022/07/10 10:49:18;;;;;;;3.55;1.15;;;25.60;72.70;;;;;;5004467;28;20057;-55
2022/07/10 10:52:01;;;;;;;1.63;0.98;;;25.80;74.80;;;;;;5004437;28;20042;-54
2022/07/10 10:54:29;;;;;;;2.88;1.20;;;26.20;70.60;;;;;;5004538;28;20054;-50
2022/07/10 10:57:15;;;;;;;2.13;1.13;;;26.40;71.60;;;;;;5006091;28;20077;-54
2022/07/10 10:59:49;;;;;;;5.40;1.23;;;26.10;69.00;;;;;;5007755;28;20128;-52
2022/07/10 11:02:23;;;;;;;3.13;1.40;;;25.70;70.20;;;;;;5007264;28;20471;-51
2022/07/10 11:04:53;;;;;;;6.43;1.40;;;25.50;71.00;;;;;;5013003;28;20077;-51
2022/07/10 11:07:55;;;;;;;3.83;1.27;;;25.50;72.30;;;;;;5007172;28;20108;-52
2022/07/10 11:10:35;;;;;;;3.50;1.98;;;25.50;70.40;;;;;;5013589;28;20076;-54
2022/07/10 11:13:02;;;;;;;2.85;1.13;;;25.40;70.30;;;;;;5011159;28;20103;-49
2022/07/10 11:15:30;;;;;;;6.20;1.13;;;25.30;72.00;;;;;;5006944;28;20479;-52
2022/07/10 11:17:57;;;;;;;1.92;0.95;;;25.40;70.90;;;;;;5003320;28;20042;-51
2022/07/10 11:20:24;;;;;;;2.08;1.20;;;25.40;70.70;;;;;;5012242;28;20049;-53
2022/07/10 11:23:06;;;;;;;2.33;1.38;;;25.30;70.50;;;;;;5013972;28;20509;-54
2022/07/10 11:25:43;;;;;;;7.72;2.83;;;25.20;69.60;;;;;;5012477;28;20238;-53
2022/07/10 11:28:12;;;;;;;2.42;1.05;;;25.20;69.10;;;;;;5013834;28;20054;-54
2022/07/10 11:30:45;;;;;;;4.35;1.58;;;25.30;70.50;;;;;;5011645;28;20049;-54
2022/07/10 11:33:13;;;;;;;2.85;1.38;;;25.20;69.30;;;;;;5016366;28;20104;-52
2022/07/10 11:35:48;;;;;;;1.35;1.00;;;25.30;70.80;;;;;;5014121;28;20042;-51
2022/07/10 11:38:21;;;;;;;6.78;1.50;;;25.30;70.00;;;;;;5014083;28;20555;-48
2022/07/10 11:40:48;;;;;;;3.08;1.10;;;25.50;68.70;;;;;;5016914;28;20111;-54
2022/07/10 11:43:23;;;;;;;2.25;1.23;;;25.70;69.00;;;;;;5011107;28;20046;-54
2022/07/10 11:45:52;;;;;;;2.63;1.17;;;25.50;70.00;;;;;;5015112;28;20144;-51
2022/07/10 11:48:23;;;;;;;6.13;1.13;;;25.50;70.00;;;;;;5011781;28;20081;-51
2022/07/10 11:50:50;;;;;;;3.13;1.42;;;25.60;69.90;;;;;;5008455;28;20084;-51
2022/07/10 11:53:27;;;;;;;4.80;1.20;;;25.80;69.80;;;;;;5008391;28;20461;-56
2022/07/10 11:55:54;;;;;;;2.63;0.98;;;25.90;68.80;;;;;;5012504;28;20108;-52
2022/07/10 11:58:22;;;;;;;3.35;1.50;;;25.90;68.80;;;;;;5015502;28;20050;-52
2022/07/10 12:01:00;;;;;;;3.05;1.00;;;25.80;68.90;;;;;;5013844;28;20054;-53
2022/07/10 12:03:30;;;;;;;7.15;1.40;;;25.90;68.70;;;;;;5013961;28;20057;-53
2022/07/10 12:06:05;;;;;;;3.40;1.50;;;26.00;69.00;;;;;;5006402;28;20065;-60
2022/07/10 12:08:46;;;;;;;4.20;1.30;;;26.00;65.70;;;;;;4996079;28;20552;-52
2022/07/10 12:11:14;;;;;;;1.42;0.90;;;25.80;66.30;;;;;;5003390;28;20045;-55
2022/07/10 12:13:42;;;;;;;3.53;1.85;;;25.70;64.80;;;;;;4997198;28;20077;-53
2022/07/10 12:16:08;;;;;;;4.53;1.13;;;25.70;65.00;;;;;;5008314;28;20517;-52
2022/07/10 12:18:35;;;;;;;2.67;1.10;;;25.90;66.00;;;;;;5008787;28;20050;-53
2022/07/10 12:21:03;;;;;;;1.50;1.10;;;25.90;64.90;;;;;;5007203;28;20097;-52
2022/07/10 12:23:30;;;;;;;4.75;1.20;;;26.00;64.90;;;;;;5008590;28;20041;-56
2022/07/10 12:25:57;;;;;;;3.65;1.17;;;26.00;64.70;;;;;;5008512;28;20153;-54
2022/07/10 12:28:24;;;;;;;1.77;1.33;;;25.90;65.40;;;;;;5007038;28;20077;-51
2022/07/10 12:30:51;;;;;;;4.05;1.35;;;25.90;65.30;;;;;;5008028;28;20049;-52
2022/07/10 12:33:22;;;;;;;2.42;0.88;;;26.00;65.80;;;;;;5006308;28;20465;-52
2022/07/10 12:35:55;;;;;;;3.72;1.20;;;26.30;63.40;;;;;;5008608;28;20096;-53
2022/07/10 12:38:26;;;;;;;4.57;1.23;;;26.30;63.10;;;;;;5008285;28;20073;-54
2022/07/10 12:41:09;;;;;;;2.40;1.40;;;26.40;63.00;;;;;;4999524;28;20042;-55
2022/07/10 12:43:36;;;;;;;1.92;1.08;;;26.50;62.20;;;;;;5009038;28;20050;-54
2022/07/10 12:46:23;;;;;;;1.67;0.95;;;26.40;60.60;;;;;;5008966;28;20096;-55
2022/07/10 12:49:03;;;;;;;1.20;0.80;;;26.40;60.90;;;;;;5008990;28;20050;-54
2022/07/10 12:51:33;;;;;;;6.10;1.08;;;26.50;62.80;;;;;;5009158;28;20049;-52
2022/07/10 12:54:31;;;;;;;9.80;1.50;;;26.70;63.10;;;;;;5007644;28;20569;-53
2022/07/10 12:56:58;;;;;;;1.30;1.08;;;26.80;62.00;;;;;;5008616;28;20493;-52
2022/07/10 12:59:25;;;;;;;1.98;1.10;;;26.80;62.80;;;;;;5008616;28;20053;-55
2022/07/10 13:01:52;;;;;;;2.97;1.50;;;26.80;62.40;;;;;;5006970;28;20532;-53
2022/07/10 13:04:26;;;;;;;4.57;1.60;;;27.00;62.50;;;;;;5008289;28;20042;-52
2022/07/10 13:06:54;;;;;;;1.95;1.70;;;27.20;60.50;;;;;;5000627;28;20456;-54